x

9444090 - Port Angeles, Wa (ptaw1) Weather Station

9:30 - Wed 30th Jul 2014 All times are PDT. -7 hours from GMT.

  • Wind
    13mph, 17mph gusts
  • Sea Temp 53°f
  • Aire Temp 53°f
  • Sea Pressure 1021.7mb
  • 9444090 - Port Angeles, Wa
  • 9444090 - Port Angeles, Wa

More Historic Weather Station data

Upgrade to MSW Pro to gain access to the past 30 days of data for over 8000 Wavebouys and Weather Stations around the globe.

Join Pro

Comparision Forecast

View Surf forecast
   
mié 07/30 9:30 13 17 mph 1021.7mb 53f 53f
9:24 15 17 mph 1021.6mb 53f 53f
9:18 14 18 mph 1021.6mb 53f 53f
9:12 14 17 mph 1021.7mb 53f 53f
9:06 14 16 mph 1021.6mb 53f 54f
9:00 15 17 mph 1021.6mb 53f 54f
8:36 14 16 mph 1021.6mb 53f 54f
8:30 14 18 mph 1021.6mb 53f 54f
8:24 14 18 mph 1021.5mb 53f 54f
8:18 14 20 mph 1021.4mb 53f 54f
8:12 8 13 mph 1021.4mb 53f 54f
8:06 10 16 mph 1021.4mb 53f 54f
8:00 14 18 mph 1021.4mb 53f 54f
7:36 14 16 mph 1021.2mb 53f 54f
7:30 11 16 mph 1021.2mb 53f 54f
7:24 10 13 mph 1021.1mb 53f 54f
7:18 13 15 mph 1021.1mb 53f 54f
7:12 14 15 mph 1021.1mb 53f 55f
7:06 11 13 mph 1021.1mb 53f 55f
7:00 9 11 mph 1021mb 53f 55f
6:36 3 6 mph 1020.9mb 53f 55f
6:30 6 8 mph 1020.8mb 53f 54f
6:24 6 9 mph 1020.8mb 53f 55f
6:18 8 11 mph 1020.8mb 53f 54f
6:12 10 13 mph 1020.7mb 53f 54f
6:06 8 11 mph 1020.8mb 53f 54f
6:00 6 11 mph 1020.8mb 53f 55f
5:36 7 13 mph 1020.7mb 53f 56f
5:30 8 11 mph 1020.7mb 53f 56f
5:24 8 10 mph 1020.6mb 53f 55f
5:18 8 11 mph 1020.6mb 53f 56f
5:12 5 6 mph 1020.6mb 53f 56f
5:06 7 11 mph 1020.6mb 53f 56f
5:00 6 9 mph 1020.5mb 53f 56f
4:36 7 11 mph 1020.2mb 53f 57f
4:30 9 10 mph 1020.1mb 53f 57f
4:24 8 10 mph 1020.1mb 53f 57f
4:18 7 11 mph 1020.1mb 53f 57f
4:12 9 13 mph 1020mb 53f 58f
4:06 8 9 mph 1019.9mb 53f 58f
4:00 8 10 mph 1019.8mb 53f 58f
3:36 9 11 mph 1019.9mb 53f 56f
3:30 9 11 mph 1019.9mb 53f 57f
3:24 10 14 mph 1019.9mb 53f 56f
3:18 13 16 mph 1019.9mb 53f 56f
3:12 13 15 mph 1019.8mb 53f 56f
3:06 11 15 mph 1019.8mb 53f 56f
3:00 11 17 mph 1019.8mb 53f 56f
2:36 14 16 mph 1019.7mb 53f 57f
2:30 14 17 mph 1019.7mb 53f 57f
2:24 16 18 mph 1019.6mb 53f 57f
2:18 16 18 mph 1019.5mb 53f 57f
2:12 11 15 mph 1019.5mb 53f 58f
2:06 11 15 mph 1019.5mb 53f 58f
2:00 10 13 mph 1019.5mb 53f 58f
1:36 10 15 mph 1019.4mb 53f 58f
1:30 13 15 mph 1019.4mb 53f 58f
1:24 14 17 mph 1019.4mb 53f 58f
1:18 13 15 mph 1019.4mb 53f 58f
1:12 11 14 mph 1019.5mb 53f 58f
1:06 9 10 mph 1019.4mb 53f 58f
1:00 9 13 mph 1019.4mb 53f 58f
12:36 13 17 mph 1019.1mb 53f 58f
12:30 14 17 mph 1019.1mb 53f 58f
12:24 14 18 mph 1019.1mb 53f 58f
12:18 15 18 mph 1019.1mb 53f 58f
12:12 13 17 mph 1019.1mb 53f 58f
12:06 13 15 mph 1019mb 53f 59f
12:00 11 16 mph 1019.1mb 53f 62f
mar 07/29 11:36 15 23 mph 1018.9mb 53f 62f
11:30 14 17 mph 1018.9mb 53f 62f
11:24 13 17 mph 1018.9mb 53f 62f
11:18 13 16 mph 1018.9mb 53f 61f
11:12 14 16 mph 1018.8mb 53f 62f
11:06 14 17 mph 1018.9mb 53f 62f
11:00 13 16 mph 1018.9mb 53f 61f
10:36 14 16 mph 1019mb 53f 61f
10:30 11 16 mph 1019.1mb 53f 62f
10:24 11 16 mph 1019.1mb 53f 61f
10:18 11 14 mph 1019.1mb 53f 60f
10:12 13 14 mph 1019.1mb 53f 59f
10:06 14 16 mph 1019.1mb 53f 59f
10:00 10 14 mph 1019.1mb 53f 60f
9:36 14 20 mph 1018.9mb 53f 63f
9:30 16 22 mph 1018.8mb 53f 63f
9:24 14 18 mph 1018.8mb 53f 63f
9:18 14 21 mph 1018.8mb 53f 63f
9:12 13 17 mph 1018.9mb 53f 63f
9:06 14 21 mph 1018.8mb 53f 63f
9:00 15 21 mph 1018.8mb 53f 63f
8:36 13 16 mph 1018.9mb 53f 62f
8:30 11 17 mph 1018.9mb 53f 61f
8:24 14 18 mph 1018.9mb 53f 61f
8:18 16 22 mph 1018.8mb 53f 61f
8:12 17 22 mph 1018.8mb 53f 60f
8:06 20 23 mph 1018.7mb 53f 60f
8:00 18 21 mph 1018.7mb 53f 61f
7:36 20 23 mph 1018.6mb 53f 62f
7:30 18 23 mph 1018.6mb 53f 62f
7:24 20 24 mph 1018.7mb 53f 62f
7:18 18 23 mph 1018.7mb 53f 63f
7:12 18 23 mph 1018.7mb 53f 63f
7:06 20 24 mph 1018.7mb 53f 62f
7:00 20 24 mph 1018.7mb 53f 62f
6:36 18 24 mph 1018.7mb 53f 63f
6:30 18 22 mph 1018.8mb 53f 64f
6:24 18 23 mph 1018.8mb 53f 63f
6:18 18 22 mph 1018.8mb 53f 63f
6:12 20 23 mph 1018.9mb 53f 62f
6:06 22 25 mph 1018.9mb 53f 62f
6:00 22 24 mph 1019mb 53f 63f
5:36 23 26 mph 1019.1mb 53f 62f
5:30 25 29 mph 1019mb 53f 63f
5:24 26 30 mph 1018.9mb 53f 62f
5:18 25 30 mph 1019.1mb 53f 62f
5:12 22 28 mph 1019.2mb 53f 62f
5:06 23 26 mph 1019.1mb 53f 62f
5:00 20 26 mph 1019.2mb 53f 62f
4:36 22 24 mph 1019.6mb 53f 62f
4:30 21 24 mph 1019.6mb 53f 62f
4:24 21 24 mph 1019.6mb 53f 62f
4:18 21 28 mph 1019.6mb 53f 62f
4:12 22 26 mph 1019.7mb 53f 62f
4:06 21 26 mph 1019.8mb 53f 62f
4:00 22 28 mph 1019.9mb 53f 62f
3:36 21 25 mph 1020mb 53f 62f
3:30 20 23 mph 1020.1mb 53f 62f
3:24 18 22 mph 1020.2mb 53f 62f
3:18 20 22 mph 1020.2mb 53f 63f
3:12 18 22 mph 1020.3mb 53f 63f
3:06 20 22 mph 1020.2mb 53f 63f
3:00 20 23 mph 1020.3mb 53f 63f
2:36 21 25 mph 1020.4mb 53f 60f
2:30 22 25 mph 1020.4mb 53f 59f
2:24 23 26 mph 1020.4mb 53f 58f
2:18 22 24 mph 1020.5mb 53f 59f
2:12 21 25 mph 1020.6mb 53f 59f
2:06 20 23 mph 1020.6mb 53f 59f
2:00 16 22 mph 1020.7mb 53f 59f
1:36 18 23 mph 1020.8mb 53f 57f
1:30 18 22 mph 1020.8mb 53f 57f
1:24 21 23 mph 1020.8mb 53f 57f
1:18 21 24 mph 1020.8mb 53f 57f
1:12 21 22 mph 1020.9mb 53f 57f
1:06 20 23 mph 1020.9mb 53f 57f
1:00 18 22 mph 1020.9mb 53f 57f
12:36 21 23 mph 1021mb 53f 56f
12:30 21 23 mph 1021mb 53f 57f
12:24 20 22 mph 1021mb 53f 57f
12:18 20 22 mph 1021.1mb 53f 57f
12:12 18 23 mph 1021.1mb 53f 56f
12:06 20 22 mph 1021.1mb 53f 57f
12:00 20 22 mph 1021.2mb 53f 57f
11:36 18 22 mph 1021.2mb 53f 56f
11:30 21 24 mph 1021.2mb 52f 56f
11:24 21 24 mph 1021.2mb 52f 57f
11:18 20 22 mph 1021.2mb 52f 56f
11:12 18 21 mph 1021.2mb 52f 56f
11:06 20 22 mph 1021.1mb 52f 55f
11:00 18 22 mph 1021.1mb 52f 55f
10:36 20 22 mph 1020.9mb 52f 55f
10:30 20 22 mph 1020.9mb 52f 56f
10:24 16 21 mph 1021mb 52f 56f
10:18 11 16 mph 1021mb 52f 58f
10:12 13 16 mph 1021mb 52f 57f
10:06 13 17 mph 1021mb 52f 57f
10:00 15 21 mph 1021mb 52f 56f
9:54 15 20 mph 1021mb 52f 55f
9:48 14 20 mph 1021mb 52f 54f
9:36 14 17 mph 1021mb 52f 54f
9:30 14 18 mph 1021mb 52f 53f
9:24 14 20 mph 1021mb 53f 52f
9:18 15 18 mph 1021mb 53f 52f
9:12 17 20 mph 1020.9mb 53f 53f
9:06 16 17 mph 1020.9mb 52f 52f
9:00 16 20 mph 1020.9mb 52f 52f
8:54 16 20 mph 1020.9mb 53f 52f
8:48 14 17 mph 1020.9mb 53f 53f
8:36 10 15 mph 1020.9mb 52f 53f
8:30 14 15 mph 1020.8mb 52f 52f
8:24 15 17 mph 1020.8mb 52f 53f
8:18 14 16 mph 1020.8mb 52f 53f
8:12 11 16 mph 1020.8mb 52f 54f
8:06 14 16 mph 1020.7mb 52f 53f
8:00 10 13 mph 1020.6mb 52f 53f
7:54 9 11 mph 1020.7mb 52f 53f
7:48 11 14 mph 1020.7mb 52f 53f
7:36 14 16 mph 1020.7mb 52f 52f
7:30 13 15 mph 1020.7mb 52f 53f
7:24 13 14 mph 1020.7mb 52f 53f
7:18 7 9 mph 1020.7mb 52f 53f
7:12 5 8 mph 1020.7mb 52f 53f
7:06 6 8 mph 1020.7mb 52f 53f
7:00 5 6 mph 1020.6mb 52f 53f
6:54 6 7 mph 1020.6mb 52f 52f
6:48 5 8 mph 1020.6mb 52f 53f
6:36 6 9 mph 1020.5mb 52f 53f
6:30 7 8 mph 1020.4mb 52f 53f
6:24 5 8 mph 1020.4mb 52f 53f
6:18 5 8 mph 1020.4mb 52f 53f
6:12 5 7 mph 1020.3mb 52f 53f
6:06 3 5 mph 1020.3mb 52f 53f
6:00 2 3 mph 1020.2mb 52f 53f
5:54 1 3 mph 1020.2mb 52f 53f
5:48 3 5 mph 1020.2mb 52f 53f
5:36 3 5 mph 1020.1mb 52f 53f
5:30  -  3 mph 1020.1mb 52f 53f
5:24 3 5 mph 1020.1mb 52f 53f
5:18 2 6 mph 1020mb 53f 53f
5:12 6 9 mph 1020mb 53f 53f
5:06 8 10 mph 1020mb 53f 53f
5:00 9 13 mph 1019.9mb 53f 53f
4:54 9 13 mph 1019.8mb 53f 53f
4:48 9 10 mph 1019.8mb 53f 53f
4:36 7 10 mph 1019.7mb 53f 53f
4:30 8 9 mph 1019.6mb 53f 53f
4:24 8 11 mph 1019.6mb 53f 53f
4:18 8 11 mph 1019.5mb 53f 53f
4:12 9 10 mph 1019.5mb 53f 53f
4:06 9 13 mph 1019.4mb 53f 53f
4:00 10 11 mph 1019.4mb 53f 53f
3:54 10 13 mph 1019.3mb 53f 53f
3:48 10 14 mph 1019.2mb 52f 53f
3:36 10 13 mph 1019.1mb 52f 53f
3:30 9 11 mph 1019.1mb 52f 53f
3:24 11 15 mph 1019.1mb 53f 53f
3:18 13 14 mph 1019.1mb 53f 53f
3:12 11 16 mph 1019.1mb 53f 54f
3:06 11 14 mph 1019.1mb 53f 54f
3:00 11 14 mph 1019.1mb 53f 53f
2:54 8 10 mph 1019.1mb 53f 54f
2:48 9 14 mph 1019.1mb 53f 54f
2:36 11 14 mph 1019.1mb 53f 54f
2:30 9 13 mph 1019.1mb 53f 54f
2:24 11 14 mph 1019.1mb 53f 54f
2:18 7 13 mph 1019.1mb 53f 54f
2:12 10 14 mph 1019.1mb 53f 54f
2:06 11 15 mph 1019.1mb 53f 55f
2:00 10 13 mph 1019.1mb 53f 54f
1:54 11 14 mph 1019.1mb 52f 55f
1:48 9 11 mph 1019.1mb 52f 55f
1:36 10 14 mph 1019.1mb 52f 55f
1:30 9 15 mph 1019.1mb 52f 54f
1:24 11 15 mph 1019.2mb 51f 55f
1:18 10 13 mph 1019.2mb 51f 54f
1:12 10 14 mph 1019.2mb 51f 55f
1:06 11 13 mph 1019.2mb 51f 55f
1:00 10 13 mph 1019.3mb 51f 55f
12:54 11 14 mph 1019.3mb 52f 55f
12:48 8 11 mph 1019.3mb 52f 55f
12:36 10 13 mph 1019.3mb 52f 56f
12:30 11 14 mph 1019.2mb 52f 55f
12:24 11 14 mph 1019.3mb 53f 55f
12:18 11 16 mph 1019.3mb 53f 55f
12:12 14 16 mph 1019.3mb 53f 56f
12:06 11 15 mph 1019.2mb 53f 55f
12:00 13 15 mph 1019.2mb 53f 56f
lun 07/28 11:54 11 14 mph 1019.2mb 53f 56f
11:48 11 15 mph 1019.3mb 53f 56f
11:36 11 14 mph 1019.2mb 53f 56f
11:30 11 14 mph 1019.3mb 53f 56f
11:24 13 15 mph 1019.3mb 53f 56f
11:18 14 15 mph 1019.3mb 53f 56f
11:12 13 14 mph 1019.3mb 53f 56f
11:06 13
mph
1019.4mb 53f 56f
11:00 10 14 mph 1019.4mb 53f 57f
10:54 11 14 mph 1019.4mb 53f 57f
10:48 11 15 mph 1019.3mb 53f 56f
10:36 13 15 mph 1019.3mb 53f 57f
10:30 14 15 mph 1019.3mb 53f 58f
10:24 14 15 mph 1019.3mb 53f 57f
10:18 10 13 mph 1019.3mb 53f 58f
10:12 11 15 mph 1019.3mb 53f 58f
10:06 11 14 mph 1019.3mb 53f 58f
10:00 11 15 mph 1019.3mb 53f 58f
9:54 14 17 mph 1019.3mb 53f 59f
9:48 15 17 mph 1019.2mb 53f 58f
9:36 14 16 mph 1019.1mb 53f 59f
9:30 13 15 mph 1019.2mb 53f 59f
9:24 13 14 mph 1019.2mb 53f 59f
9:18 9 11 mph 1019.1mb 53f 60f
9:12 10 13 mph 1019mb 53f 60f
9:06 13 14 mph 1018.9mb 53f 60f
9:00 13 15 mph 1018.9mb 53f 60f
8:54 10 14 mph 1018.9mb 53f 61f
8:48 11 14 mph 1018.9mb 53f 61f
8:36 16 18 mph 1018.9mb 53f 61f
8:30 16 18 mph 1018.9mb 53f 60f
8:24 15 20 mph 1018.9mb 53f 60f
8:18 14 18 mph 1018.8mb 53f 61f
8:12 14 16 mph 1018.8mb 53f 61f
8:06 14 16 mph 1018.8mb 53f 63f
8:00 10 13 mph 1018.7mb 53f 63f
7:54 9 14 mph 1018.8mb 53f 65f
7:48 14 16 mph 1018.8mb 53f 63f
7:36 16 20 mph 1018.7mb 53f 63f
7:30 17 22 mph 1018.7mb 53f 61f
7:24 18 23 mph 1018.7mb 54f 62f
7:18 21 24 mph 1018.7mb 54f 61f
7:12 22 23 mph 1018.7mb 54f 60f
7:06 21 23 mph 1018.7mb 54f 62f
7:00 17 20 mph 1018.7mb 54f 62f
6:54 16 22 mph 1018.7mb 54f 62f
6:48 16 22 mph 1018.8mb 54f 63f
6:36 21 24 mph 1018.8mb 54f 60f
6:30 21 23 mph 1018.8mb 54f 60f
6:24 22 24 mph 1018.8mb 54f 60f
6:18 20 22 mph 1018.9mb 54f 58f
6:12 21 25 mph 1018.9mb 54f 59f
6:06 23 24 mph 1018.9mb 54f 59f
6:00 22 25 mph 1019mb 54f 59f
5:54 21 24 mph 1019.1mb 54f 60f
5:48 21 24 mph 1019.1mb 54f 60f
5:36 21 23 mph 1019.2mb 54f 62f
5:30 15 18 mph 1019.3mb 54f 64f
5:24 17 18 mph 1019.3mb 54f 63f
5:18 17 18 mph 1019.3mb 54f 62f
5:12 16 20 mph 1019.4mb 54f 61f
5:06 16 20 mph 1019.4mb 54f 62f
5:00 18 22 mph 1019.4mb 54f 61f
4:54 21 22 mph 1019.5mb 54f 61f
4:48 21 22 mph 1019.5mb 54f 61f
4:36 20 22 mph 1019.6mb 54f 60f
4:30 20 22 mph 1019.6mb 54f 60f
4:24 20 23 mph 1019.7mb 54f 59f
4:18 22 23 mph 1019.7mb 54f 59f
4:12 21 22 mph 1019.7mb 54f 60f
4:06 20 23 mph 1019.8mb 53f 60f
4:00 21 23 mph 1019.8mb 53f 60f
3:54 22 24 mph 1019.8mb 53f 61f
3:48 20 22 mph 1019.9mb 53f 61f
3:36 18 23 mph 1020mb 53f 60f
3:30 21 22 mph 1020mb 53f 60f
3:24 18 22 mph 1020.1mb 53f 60f
3:18 21 22 mph 1020.2mb 53f 60f
3:12 20 22 mph 1020.2mb 53f 60f
3:06 20 22 mph 1020.2mb 53f 60f
3:00 20 22 mph 1020.2mb 53f 60f
2:54 18 22 mph 1020.2mb 53f 60f
2:48 20 22 mph 1020.1mb 53f 60f
2:36 18 21 mph 1020.1mb 53f 60f
2:30 20 21 mph 1020.1mb 53f 60f
2:24 20 22 mph 1020.1mb 53f 60f
2:18 18 21 mph 1020.1mb 53f 60f
2:12 17 20 mph 1020.1mb 53f 60f
2:06 18 21 mph 1020.1mb 53f 60f
2:00 16 20 mph 1020.1mb 53f 60f
1:54 17 20 mph 1020.1mb 53f 60f
1:48 16 20 mph 1020.2mb 53f 60f
1:36 17 20 mph 1020.2mb 53f 59f
1:30 16 18 mph 1020.2mb 53f 59f
1:24 16 17 mph 1020.2mb 53f 59f
1:18 16 17 mph 1020.2mb 53f 59f
1:12 14 17 mph 1020.2mb 53f 59f
1:06 9 14 mph 1020.2mb 53f 60f
1:00 13 15 mph 1020.3mb 53f 60f
12:54 11 15 mph 1020.3mb 53f 60f
12:48 8 13 mph 1020.3mb 53f 60f
12:36 7 15 mph 1020.4mb 53f 59f
12:30 14 17 mph 1020.4mb 53f 58f
12:24 14 17 mph 1020.5mb 53f 58f
12:18 16 18 mph 1020.5mb 53f 58f
12:12 15 18 mph 1020.5mb 53f 58f
12:06 15 18 mph 1020.5mb 53f 58f
12:00 13 14 mph 1020.5mb 53f 59f
11:54 13 14 mph 1020.5mb 53f 59f
11:48 10 13 mph 1020.5mb 53f 60f
11:36 10 13 mph 1020.5mb 52f 61f
11:30 6 8 mph 1020.5mb 52f 62f
11:24 6 9 mph 1020.5mb 52f 61f
11:18 6 9 mph 1020.5mb 52f 61f
11:12 7 9 mph 1020.5mb 52f 61f
11:06 6 9 mph 1020.4mb 52f 62f
11:00 8 9 mph 1020.4mb 52f 60f
10:54 7 11 mph 1020.5mb 52f 58f
10:48 6 10 mph 1020.5mb 52f 58f
10:36 9 11 mph 1020.5mb 52f 58f
10:30 8 10 mph 1020.5mb 52f 57f
10:24 7 10 mph 1020.4mb 52f 58f
10:18 5 7 mph 1020.4mb 52f 57f
10:12 5 9 mph 1020.4mb 52f 58f
10:06 8 9 mph 1020.4mb 52f 58f
10:00 5 6 mph 1020.4mb 52f 58f
9:54 3 5 mph 1020.4mb 52f 59f
9:48 3 5 mph 1020.5mb 52f 61f
9:36 3 5 mph 1020.6mb 52f 57f
9:30 5 7 mph 1020.7mb 52f 56f
9:24 3 7 mph 1020.7mb 52f 57f
9:18 6 7 mph 1020.7mb 52f 57f
9:12 6 8 mph 1020.7mb 52f 57f
9:06 6 10 mph 1020.8mb 52f 57f
9:00 7 11 mph 1020.8mb 52f 57f
8:54 8 11 mph 1020.8mb 52f 57f
8:48 10 13 mph 1020.8mb 52f 57f
8:36 9 13 mph 1020.8mb 52f 57f
8:30 11 13 mph 1020.8mb 52f 56f
8:24 10 13 mph 1020.7mb 52f 56f
8:18 11 13 mph 1020.7mb 52f 56f
8:12 10 13 mph 1020.7mb 52f 56f
8:06 11 13 mph 1020.6mb 52f 56f
8:00 9 13 mph 1020.6mb 52f 58f
7:54 7 9 mph 1020.6mb 52f 61f
7:48 3 6 mph 1020.6mb 52f 61f
7:36 2 3 mph 1020.5mb 52f 60f
7:30 3
mph
1020.5mb 52f 61f
7:24 2 3 mph 1020.6mb 52f 61f
7:18 1 2 mph 1020.6mb 52f 60f
7:12 2 3 mph 1020.6mb 52f 60f
7:06 2 5 mph 1020.7mb 52f 59f
7:00 3 6 mph 1020.7mb 52f 58f
6:54 5 6 mph 1020.6mb 52f 57f
6:48 5 8 mph 1020.6mb 52f 58f
6:36 7 9 mph 1020.5mb 52f 56f
6:30 8 10 mph 1020.4mb 52f 56f
6:24 8 9 mph 1020.4mb 52f 56f
6:18 3 5 mph 1020.3mb 52f 56f
6:12  -  2 mph 1020.2mb 52f 55f
6:06  -  2 mph 1020.2mb 53f 54f
6:00  -  2 mph 1020.1mb 53f 55f
5:54 1 2 mph 1020.1mb 53f 55f
5:48  -  1 mph 1020.1mb 53f 55f
5:36 5 6 mph 1020mb 53f 55f
5:30 2 5 mph 1020mb 53f 54f
5:24 3
mph
1020.1mb 53f 54f
5:18 3
mph
1020mb 53f 54f
5:12 2
mph
1020mb 53f 54f
5:06 2 3 mph 1020mb 53f 54f
5:00 3
mph
1020mb 53f 54f
4:54 2 5 mph 1019.9mb 53f 54f
4:48 3 5 mph 1020mb 53f 54f
4:36 6 8 mph 1019.9mb 53f 54f
4:30 6 8 mph 1020mb 53f 55f
4:24 7 9 mph 1020mb 53f 55f
4:18 2 5 mph 1020mb 53f 56f
4:12  -  2 mph 1019.9mb 53f 56f
4:06 2 5 mph 1019.9mb 53f 56f
4:00 2 3 mph 1019.9mb 53f 56f
3:54 1 5 mph 1019.8mb 53f 57f
3:48 5 7 mph 1019.8mb 53f 57f
3:36 1 2 mph 1019.7mb 52f 57f
3:30 1 2 mph 1019.7mb 53f 56f
3:24 1 2 mph 1019.6mb 53f 56f
3:18 1 2 mph 1019.5mb 53f 57f
3:12 2 3 mph 1019.6mb 53f 57f
3:06 1 3 mph 1019.5mb 53f 57f
3:00  -  3 mph 1019.6mb 53f 58f
2:54 3 8 mph 1019.6mb 53f 57f
2:48 7 8 mph 1019.5mb 53f 58f
2:36 7 8 mph 1019.5mb 53f 58f
2:30 7 8 mph 1019.5mb 53f 58f
2:24 7 8 mph 1019.5mb 52f 58f
2:18 2 5 mph 1019.5mb 52f 58f
2:12 2 3 mph 1019.6mb 52f 58f
2:06 1 2 mph 1019.6mb 52f 57f
2:00 1 3 mph 1019.5mb 52f 57f
1:54 3 5 mph 1019.6mb 52f 58f
1:48  -  5 mph 1019.6mb 52f 58f
1:36 2 5 mph 1019.6mb 52f 58f
1:30 2 5 mph 1019.7mb 52f 58f
1:24  -  3 mph 1019.7mb 52f 58f
1:18 2 5 mph 1019.8mb 52f 58f
1:12 5 7 mph 1019.7mb 51f 58f
1:06 5 7 mph 1019.8mb 51f 58f
1:00 3 6 mph 1019.8mb 51f 58f
12:54 5 8 mph 1019.8mb 51f 58f
12:48 7 8 mph 1019.8mb 51f 58f
12:36 8 11 mph 1019.8mb 53f 58f
12:30 8 10 mph 1019.8mb 53f 58f
12:24 7 9 mph 1019.8mb 53f 58f
12:18 7 10 mph 1019.8mb 53f 57f
12:12 8 10 mph 1019.8mb 53f 57f
12:06 6 9 mph 1019.8mb 53f 58f
12:00 8 11 mph 1019.8mb 53f 58f
dom 07/27 11:54 10 13 mph 1019.8mb 53f 58f
11:48 9 11 mph 1019.8mb 53f 58f
11:36 9 13 mph 1019.7mb 53f 58f
11:30 10 14 mph 1019.7mb 53f 58f
11:24 10 14 mph 1019.7mb 53f 58f
11:18 11 14 mph 1019.7mb 53f 59f
11:12 13 15 mph 1019.8mb 53f 59f
11:06 14 16 mph 1019.8mb 53f 58f
11:00 14 15 mph 1019.8mb 53f 59f
10:54 10 13 mph 1019.9mb 53f 59f
10:48 10 13 mph 1019.9mb 53f 59f
10:36 11 13 mph 1019.9mb 53f 60f
10:30 11 14 mph 1020mb 53f 60f
10:24 14 15 mph 1020mb 53f 59f
10:18 11 14 mph 1020mb 53f 59f
10:12 15 18 mph 1019.9mb 53f 60f
10:06 15 16 mph 1019.9mb 53f 60f
10:00 14 16 mph 1019.9mb 53f 60f
9:54 14 16 mph 1019.9mb 53f 60f
9:48 9 11 mph 1019.9mb 53f 61f
9:36 8 11 mph 1019.8mb 53f 61f
9:30 7 10 mph 1019.8mb 53f 61f
9:24 10 15 mph 1019.8mb 53f 61f
9:18 14 15 mph 1019.8mb 53f 61f
9:12 14 16 mph 1019.8mb 53f 61f
9:06 14 16 mph 1019.8mb 53f 61f
9:00 9 13 mph 1019.8mb 53f 64f
8:54 8 11 mph 1019.8mb 52f 63f
8:48 8 10 mph 1019.8mb 52f 64f
8:36 9 14 mph 1019.8mb 52f 65f
8:30 10 13 mph 1019.8mb 52f 65f
8:24 11 14 mph 1019.8mb 52f 64f
8:18 10 13 mph 1019.8mb 52f 64f
8:12 9 13 mph 1019.8mb 52f 64f
8:06 9 14 mph 1019.8mb 52f 64f
8:00 9 14 mph 1019.8mb 52f 64f
7:54 13 16 mph 1019.7mb 52f 64f
7:48 14 15 mph 1019.8mb 53f 64f
7:36 14 17 mph 1019.7mb 53f 63f
7:30 16 18 mph 1019.7mb 53f 62f
7:24 16 18 mph 1019.7mb 53f 62f
7:18 17 20 mph 1019.7mb 53f 61f
7:12 17 20 mph 1019.7mb 53f 61f
7:06 17 20 mph 1019.8mb 53f 61f
7:00 17 18 mph 1019.9mb 53f 61f
6:54 17 20 mph 1019.9mb 53f 61f
6:48 18 20 mph 1019.9mb 53f 61f
6:36 16 18 mph 1020mb 53f 62f
6:30 17 21 mph 1020.1mb 53f 61f
6:24 17 21 mph 1020.1mb 53f 61f
6:18 18 20 mph 1020.2mb 53f 61f
6:12 17 20 mph 1020.2mb 53f 61f
6:06 17 20 mph 1020.2mb 53f 61f
6:00 17 20 mph 1020.2mb 53f 61f
5:54 17 21 mph 1020.2mb 53f 61f
5:48 17 21 mph 1020.3mb 53f 61f
5:36 20 22 mph 1020.4mb 53f 61f
5:30 18 21 mph 1020.4mb 53f 61f
5:24 17 21 mph 1020.4mb 53f 61f
5:18 20 22 mph 1020.4mb 53f 61f
5:12 18 21 mph 1020.5mb 53f 61f
5:06 18 20 mph 1020.6mb 53f 61f
5:00 18 22 mph 1020.6mb 53f 61f
4:54 18 21 mph 1020.6mb 53f 61f
4:48 17 21 mph 1020.6mb 53f 61f
4:36 18 22 mph 1020.7mb 53f 61f
4:30 20 22 mph 1020.7mb 52f 61f
4:24 20 21 mph 1020.7mb 52f 61f
4:18 17 22 mph 1020.7mb 52f 61f
4:12 18 21 mph 1020.8mb 52f 61f
4:06 18 20 mph 1020.8mb 52f 61f
4:00 17 21 mph 1020.8mb 52f 60f
3:54 16 20 mph 1020.9mb 52f 60f
3:48 17 18 mph 1020.9mb 52f 59f
3:36 16 18 mph 1021mb 52f 59f
3:30 16 18 mph 1021.1mb 52f 59f
3:24 15 17 mph 1021.1mb 52f 60f
3:18 15 17 mph 1021.1mb 52f 60f
3:12 15 17 mph 1021.2mb 52f 60f
3:06 14 16 mph 1021.3mb 52f 60f
3:00 13 14 mph 1021.3mb 52f 61f
2:54 13 15 mph 1021.3mb 52f 61f
2:48 13 14 mph 1021.3mb 52f 60f
2:36 14 15 mph 1021.4mb 52f 60f
2:30 14 15 mph 1021.5mb 52f 60f
2:24 11 13 mph 1021.5mb 52f 60f
2:18 8 10 mph 1021.5mb 52f 61f
2:12 7 10 mph 1021.6mb 52f 61f
2:06 8 11 mph 1021.6mb 52f 61f
2:00 9 11 mph 1021.7mb 52f 61f
1:54 9 11 mph 1021.7mb 52f 61f
1:48 7 9 mph 1021.7mb 52f 62f
1:36 6 8 mph 1021.8mb 52f 62f
1:30 6 9 mph 1021.9mb 52f 62f
1:24 9 10 mph 1021.9mb 52f 62f
1:18 7 9 mph 1022mb 52f 63f
1:12 6 8 mph 1022mb 52f 64f
1:06 6 7 mph 1022mb 52f 65f
1:00 5 6 mph 1022mb 52f 65f
12:54 3
mph
1022.1mb 52f 67f
12:48 3
mph
1022.1mb 52f 68f
12:36 2 3 mph 1022.2mb 52f 66f
12:30 3
mph
1022.2mb 52f 66f
12:24 2 3 mph 1022.2mb 52f 67f
12:18 2 3 mph 1022.2mb 52f 68f
12:12 2 3 mph 1022.3mb 52f 69f
12:06 2 3 mph 1022.3mb 52f 68f
12:00 1 2 mph 1022.4mb 52f 66f
11:54 1 3 mph 1022.4mb 52f 64f
11:48 1 2 mph 1022.5mb 52f 65f
11:36 1 2 mph 1022.5mb 52f 67f
11:30 1 2 mph 1022.6mb 52f 65f
11:24 2
mph
1022.6mb 52f 66f
11:18 2 3 mph 1022.6mb 52f 64f
11:12 2 3 mph 1022.6mb 52f 65f
11:06 3 5 mph 1022.6mb 52f 65f
11:00 2 3 mph 1022.7mb 52f 64f
10:54 1 3 mph 1022.7mb 52f 62f
10:48 2
mph
1022.7mb 52f 63f
10:36 2 3 mph 1022.7mb 52f 63f
10:30 1 2 mph 1022.8mb 52f 61f
10:24 2 3 mph 1022.8mb 52f 61f
10:18 2 3 mph 1022.8mb 52f 59f
10:12 2 3 mph 1022.8mb 52f 58f
10:06 2 3 mph 1022.8mb 52f 60f
10:00 2 3 mph 1022.9mb 52f 62f
9:54 3 5 mph 1022.9mb 52f 62f
9:48 2 3 mph 1023mb 52f 61f
9:36 2 5 mph 1023.1mb 52f 58f
9:30 3 6 mph 1023.1mb 52f 57f
9:24 5 6 mph 1023.1mb 52f 56f
9:18 3 6 mph 1023.2mb 52f 56f
9:12 5 6 mph 1023.2mb 52f 56f
9:06 2 5 mph 1023.2mb 52f 57f
9:00 2 3 mph 1023.1mb 52f 56f
8:54 5 7 mph 1023.1mb 52f 55f
8:48 5 7 mph 1023mb 52f 54f
8:36 5 7 mph 1023.1mb 52f 54f
8:30 7 8 mph 1023.1mb 52f 54f
8:24 6 9 mph 1023mb 52f 54f
8:18 8 9 mph 1023.1mb 52f 55f
8:12 6 7 mph 1023.1mb 52f 55f
8:06 5 8 mph 1023.1mb 52f 55f
8:00 8 10 mph 1023.1mb 52f 54f
7:54 9 11 mph 1023mb 52f 55f
7:48 7 9 mph 1023mb 52f 55f
7:36 6 7 mph 1023mb 52f 55f
7:30 2 6 mph 1022.9mb 52f 55f
7:24 6 7 mph 1022.9mb 52f 55f
7:18 6 7 mph 1022.8mb 52f 54f
7:12 6 9 mph 1022.8mb 52f 54f
7:06 6 10 mph 1022.8mb 52f 54f
7:00 6 8 mph 1022.9mb 52f 53f
6:54 7 9 mph 1022.8mb 52f 53f
6:48 7 9 mph 1022.8mb 52f 53f
6:36 6 7 mph 1022.7mb 51f 52f
6:30 6 7 mph 1022.6mb 51f 52f
6:24 3 5 mph 1022.6mb 51f 52f
6:18 5 6 mph 1022.6mb 51f 52f
6:12 5 6 mph 1022.5mb 51f 52f
6:06 5 6 mph 1022.5mb 51f 52f
6:00 5
mph
1022.4mb 51f 53f
5:54 2 3 mph 1022.4mb 51f 53f
5:48 1 2 mph 1022.3mb 52f 53f
5:36 3 5 mph 1022.3mb 52f 53f
5:30 5 8 mph 1022.2mb 52f 53f
5:24 6 9 mph 1022.2mb 52f 53f
5:18 6 7 mph 1022.2mb 52f 53f
5:12 6 8 mph 1022.2mb 52f 53f
5:06 7 10 mph 1022.2mb 52f 53f
5:00 10 11 mph 1022.2mb 52f 53f
4:54 9 13 mph 1022.2mb 52f 53f
4:48 11 14 mph 1022.2mb 52f 53f
4:36 8 10 mph 1022.2mb 52f 55f
4:30 7 10 mph 1022.2mb 52f 55f
4:24 3 7 mph 1022.2mb 52f 55f
4:18 2 3 mph 1022.1mb 52f 55f
4:12 3
mph
1022mb 52f 55f
4:06 2 5 mph 1022.1mb 52f 55f
4:00 5 6 mph 1022.1mb 52f 55f
3:54 5 6 mph 1022.1mb 52f 55f
3:48 3 6 mph 1022.1mb 52f 55f
3:36 6 7 mph 1022mb 52f 55f
3:30 5 7 mph 1022mb 52f 55f
3:24 6 8 mph 1021.9mb 52f 55f
3:18 9 10 mph 1021.9mb 52f 55f
3:12 8 9 mph 1021.9mb 52f 55f
3:06 7 10 mph 1021.8mb 52f 56f
3:00 9 10 mph 1021.9mb 52f 56f
2:54 7 9 mph 1021.8mb 52f 56f
2:48 8 9 mph 1021.9mb 52f 57f
2:36 7 11 mph 1021.8mb 52f 59f
2:30 7 9 mph 1021.9mb 51f 60f
2:24 6 8 mph 1021.9mb 51f 60f
2:18 7 9 mph 1021.9mb 51f 60f
2:12 7 10 mph 1021.9mb 51f 60f
2:06 7 10 mph 1021.9mb 52f 60f
2:00 8 10 mph 1021.9mb 52f 60f
1:54 8 11 mph 1021.9mb 52f 60f
1:48 8 13 mph 1021.9mb 52f 60f
1:36 7 10 mph 1021.9mb 52f 60f
1:30 8 11 mph 1021.8mb 52f 60f
1:24 7 10 mph 1021.8mb 52f 60f
1:18 8 10 mph 1021.9mb 52f 60f
1:12 6 10 mph 1021.9mb 52f 60f
1:06 6 9 mph 1021.9mb 52f 60f
1:00 7 10 mph 1021.9mb 52f 60f
12:54 8 10 mph 1021.9mb 52f 60f
12:48 7 13 mph 1021.8mb 52f 60f
12:36 8 10 mph 1021.9mb 52f 60f
12:30 8 10 mph 1021.9mb 52f 60f
12:24 7 13 mph 1021.9mb 52f 60f
12:18 8 14 mph 1021.8mb 52f 60f
12:12 9 11 mph 1021.8mb 51f 60f
12:06 8 11 mph 1021.9mb 51f 60f
12:00 9 14 mph 1021.8mb 51f 60f
sáb 07/26 11:54 10 15 mph 1021.7mb 51f 60f
11:48 6 11 mph 1021.7mb 51f 60f
11:36 5 13 mph 1021.7mb 51f 60f
11:30 5 10 mph 1021.8mb 51f 60f
11:24 8 16 mph 1021.9mb 51f 60f
11:18 10 14 mph 1021.9mb 51f 60f
11:12 9 13 mph 1021.9mb 51f 60f
11:06 7 11 mph 1021.9mb 51f 60f
11:00 8 14 mph 1021.9mb 52f 60f
10:54 7 11 mph 1022mb 52f 60f
10:48 10 14 mph 1022mb 52f 60f
10:36 7 10 mph 1022.1mb 52f 60f
10:30 6 11 mph 1022.1mb 52f 60f
10:24 8 13 mph 1022mb 52f 60f
10:18 10 14 mph 1021.9mb 52f 60f
10:12 10 16 mph 1021.9mb 52f 60f
10:06 11 15 mph 1021.9mb 52f 60f
10:00 10 14 mph 1022mb 52f 60f
9:54 11 15 mph 1022mb 53f 60f
9:48 11 16 mph 1021.9mb 53f 60f
9:36 11 17 mph 1021.9mb 53f 60f
9:30 11 15 mph 1021.9mb 53f 60f
9:24 14 18 mph 1021.8mb 53f 60f
9:18 14 20 mph 1021.7mb 53f 60f
9:12 14 18 mph 1021.7mb 53f 61f
9:06 11 17 mph 1021.7mb 53f 61f
9:00 11 16 mph 1021.6mb 53f 61f
8:54 13 16 mph 1021.6mb 53f 61f
8:48 9 14 mph 1021.6mb 53f 61f
8:36 9 14 mph 1021.5mb 53f 61f
8:30 13 14 mph 1021.4mb 53f 60f
8:24 11 15 mph 1021.4mb 53f 60f
8:18 13 17 mph 1021.4mb 53f 60f
8:12 14 16 mph 1021.4mb 53f 61f
8:06 11 18 mph 1021.4mb 53f 61f
8:00 14 17 mph 1021.4mb 53f 60f
7:54 13 17 mph 1021.3mb 53f 60f
7:48 16 20 mph 1021.3mb 53f 61f
7:36 17 20 mph 1021.3mb 52f 60f
7:30 16 18 mph 1021.4mb 52f 60f
7:24 17 22 mph 1021.4mb 52f 60f
7:18 17 20 mph 1021.4mb 52f 60f
7:12 17 22 mph 1021.4mb 52f 60f
7:06 18 22 mph 1021.4mb 52f 60f
7:00 18 21 mph 1021.4mb 52f 60f
6:54 17 21 mph 1021.4mb 52f 60f
6:48 18 22 mph 1021.4mb 52f 60f
6:36 18 22 mph 1021.4mb 51f 60f
6:30 16 22 mph 1021.5mb 51f 60f
6:24 18 21 mph 1021.5mb 52f 60f
6:18 16 21 mph 1021.5mb 52f 61f
6:12 14 18 mph 1021.6mb 52f 61f
6:06 16 21 mph 1021.6mb 52f 60f
6:00 17 21 mph 1021.6mb 52f 60f
5:54 18 21 mph 1021.6mb 52f 60f
5:48 16 22 mph 1021.6mb 52f 61f
5:36 17 22 mph 1021.7mb 52f 61f
5:30 16 23 mph 1021.8mb 52f 61f
5:24 18 22 mph 1021.7mb 52f 60f